logo
Search for airport 
image banner adimage banner adimage banner ad
image banner ad

ED2135 - Dresden-Friedrichstadt Krhs.

Located in Dresden, Germany

ICAO - , IATA -

Data provided by Airmate  

General information

Coordinates: N51°3'30" E13°42'58"
Elevation is 438 feet MSL.
 
View others Airports in Saxony

Operational data

Special qualification required
Current time UTC:
Current local time:
Weather at : EDDC - Dresden ( 9 km )
METAR: EDDC 162020Z AUTO 25006KT 220V300 CAVOK 22/12 Q1015 NOSIG
TAF: TAF EDDC 161700Z 1618/1718 22006KT CAVOK BECMG 1706/1708 28009KT
View NOTAMs / SUP AIP / TFR affecting this airport [VIEW]
Communications frequencies: [VIEW]

Runways:

Airport contact information

Address: Dresden Germany

Satellite view of ED2135